Time;durP1;ratioP1;P1;durP2;ratioP2;P2;SDS_P1;SDS_P2;PMS_P1;PMS_P2;Temp;Humidity;BMP_temperature;BMP_pressure;BME280_temperature;BME280_humidity;BME280_pressure;Samples;Min_cycle;Max_cycle;Signal;HPM_P1;HPM_P2
2022/07/05 00:00:40;;;;;;;;;;;;;;;20.22;39.67;98176.63;5097718;28;19946;-60
2022/07/05 00:03:10;;;;;;;;;;;;;;;20.23;39.70;98180.97;5097110;28;20378;-61
2022/07/05 00:05:38;;;;;;;;;;;;;;;20.23;39.83;98180.19;5086773;28;19920;-63
2022/07/05 00:08:06;;;;;;;;;;;;;;;20.17;39.81;98171.41;5085909;28;19924;-60
2022/07/05 00:10:37;;;;;;;;;;;;;;;20.12;40.14;98172.53;5082253;28;20344;-61
2022/07/05 00:13:06;;;;;;;;;;;;;;;20.07;40.06;98169.28;5092909;28;19927;-61
2022/07/05 00:15:34;;;;;;;;;;;;;;;20.03;40.34;98177.50;5095722;28;20347;-60
2022/07/05 00:18:03;;;;;;;;;;;;;;;20.03;40.46;98173.94;5101839;28;19919;-60
2022/07/05 00:20:33;;;;;;;;;;;;;;;19.98;40.63;98185.28;5094144;28;19939;-61
2022/07/05 00:23:01;;;;;;;;;;;;;;;19.96;40.59;98182.09;5088648;28;19920;-59
2022/07/05 00:25:34;;;;;;;;;;;;;;;19.90;40.64;98178.81;5098237;28;19950;-60
2022/07/05 00:28:03;;;;;;;;;;;;;;;19.87;40.68;98188.66;5096931;28;19919;-58
2022/07/05 00:30:31;;;;;;;;;;;;;;;19.86;40.88;98189.78;5095172;28;19928;-61
2022/07/05 00:33:04;;;;;;;;;;;;;;;19.78;41.12;98188.06;5091131;28;19928;-60
2022/07/05 00:35:57;;;;;;;;;;;;;;;19.78;41.43;98185.31;5067033;28;19932;-60
2022/07/05 00:38:27;;;;;;;;;;;;;;;19.79;41.10;98192.41;5065882;28;20237;-60
2022/07/05 00:40:55;;;;;;;;;;;;;;;19.76;40.84;98190.41;5049163;28;19920;-60
2022/07/05 00:43:23;;;;;;;;;;;;;;;19.73;41.19;98188.38;5067269;28;19983;-59
2022/07/05 00:45:52;;;;;;;;;;;;;;;19.62;41.39;98188.16;5080512;28;20355;-61
2022/07/05 00:48:20;;;;;;;;;;;;;;;19.60;41.36;98195.19;5076803;28;19932;-60
2022/07/05 00:50:48;;;;;;;;;;;;;;;19.60;41.46;98195.19;5055075;28;20308;-61
2022/07/05 00:53:27;;;;;;;;;;;;;;;19.54;41.67;98191.91;5074794;28;19920;-60
2022/07/05 00:55:58;;;;;;;;;;;;;;;19.52;41.95;98187.94;5075088;28;19987;-59
2022/07/05 00:58:26;;;;;;;;;;;;;;;19.50;41.88;98184.75;5074503;28;19926;-59
2022/07/05 01:00:55;;;;;;;;;;;;;;;19.49;41.84;98194.16;5082010;28;19921;-60
2022/07/05 01:03:23;;;;;;;;;;;;;;;19.43;42.28;98190.88;5081496;28;20080;-52
2022/07/05 01:05:51;;;;;;;;;;;;;;;19.40;42.31;98185.31;5086405;28;19936;-60
2022/07/05 01:08:19;;;;;;;;;;;;;;;19.35;42.37;98187.19;5076403;28;20318;-60
2022/07/05 01:10:49;;;;;;;;;;;;;;;19.32;42.58;98189.88;5069721;28;20160;-60
2022/07/05 01:13:18;;;;;;;;;;;;;;;19.32;42.72;98187.91;5074334;28;19920;-60
2022/07/05 01:15:47;;;;;;;;;;;;;;;19.27;42.98;98179.94;5083298;28;19957;-61
2022/07/05 01:18:15;;;;;;;;;;;;;;;19.16;43.05;98178.91;5076522;28;20380;-61
2022/07/05 01:20:43;;;;;;;;;;;;;;;19.15;43.29;98187.56;5074319;28;19924;-58
2022/07/05 01:23:13;;;;;;;;;;;;;;;19.06;43.40;98177.53;5068591;28;20344;-58
2022/07/05 01:25:41;;;;;;;;;;;;;;;18.95;43.92;98176.50;5071179;28;19952;-59
2022/07/05 01:28:10;;;;;;;;;;;;;;;18.92;43.96;98180.00;5075785;28;19924;-60
2022/07/05 01:30:38;;;;;;;;;;;;;;;18.89;44.10;98182.66;5078340;28;19924;-60
2022/07/05 01:33:07;;;;;;;;;;;;;;;18.83;44.31;98180.19;5073323;28;19924;-59
2022/07/05 01:36:00;;;;;;;;;;;;;;;18.78;44.54;98174.94;5077756;28;20256;-59
2022/07/05 01:38:30;;;;;;;;;;;;;;;18.81;44.52;98185.25;5080995;28;19924;-60
2022/07/05 01:40:58;;;;;;;;;;;;;;;18.81;44.53;98182.50;5052989;28;19938;-60
2022/07/05 01:43:27;;;;;;;;;;;;;;;18.75;44.71;98175.69;5075814;28;20369;-58
2022/07/05 01:45:55;;;;;;;;;;;;;;;18.75;44.61;98177.63;5083794;28;19930;-60
2022/07/05 01:48:24;;;;;;;;;;;;;;;18.71;44.70;98188.56;5076381;28;19924;-59
2022/07/05 01:50:52;;;;;;;;;;;;;;;18.71;44.87;98188.56;5076358;28;19928;-60
2022/07/05 01:53:21;;;;;;;;;;;;;;;18.64;45.08;98180.09;5080797;28;19920;-60
2022/07/05 01:55:51;;;;;;;;;;;;;;;18.54;45.30;98183.41;5062477;28;20433;-60
2022/07/05 01:58:21;;;;;;;;;;;;;;;18.59;45.17;98183.16;5042441;28;20303;-60
2022/07/05 02:01:07;;;;;;;;;;;;;;;18.53;45.20;98187.31;5073792;28;19928;-58
2022/07/05 02:03:38;;;;;;;;;;;;;;;18.51;45.39;98184.91;5076842;28;20002;-60
2022/07/05 02:06:24;;;;;;;;;;;;;;;18.46;45.37;98187.13;5053015;28;19921;-59
2022/07/05 02:09:17;;;;;;;;;;;;;;;18.37;45.66;98192.81;5055043;28;20307;-59
2022/07/05 02:11:48;;;;;;;;;;;;;;;18.38;45.82;98191.69;5054861;28;19920;-57
2022/07/05 02:14:18;;;;;;;;;;;;;;;18.26;46.08;98184.31;5058266;28;20351;-59
2022/07/05 02:17:13;;;;;;;;;;;;;;;18.28;46.02;98187.50;5085563;28;19920;-59
2022/07/05 02:19:58;;;;;;;;;;;;;;;18.23;46.21;98187.78;5062614;28;19934;-59
2022/07/05 02:22:28;;;;;;;;;;;;;;;18.28;46.07;98190.25;5064731;28;19945;-60
2022/07/05 02:24:56;;;;;;;;;;;;;;;18.25;45.90;98181.91;5068324;28;19927;-60
2022/07/05 02:27:27;;;;;;;;;;;;;;;18.23;46.19;98187.78;5058431;28;19926;-59
2022/07/05 02:29:56;;;;;;;;;;;;;;;18.23;46.09;98196.03;5074317;28;19931;-60
2022/07/05 02:32:33;;;;;;;;;;;;;;;18.12;46.27;98192.22;5060587;28;20411;-60
2022/07/05 02:35:04;;;;;;;;;;;;;;;18.12;46.23;98194.16;5063713;28;20372;-57
2022/07/05 02:37:33;;;;;;;;;;;;;;;18.06;46.73;98190.88;5083039;28;19969;-57
2022/07/05 02:40:07;;;;;;;;;;;;;;;18.00;46.81;98197.78;5079322;28;19935;-60
2022/07/05 02:42:40;;;;;;;;;;;;;;;17.94;47.07;98199.19;5070619;28;20011;-60
2022/07/05 02:45:11;;;;;;;;;;;;;;;17.91;46.90;98194.41;5072654;28;20414;-51
2022/07/05 02:47:41;;;;;;;;;;;;;;;17.98;46.89;98197.34;5076223;28;19932;-59
2022/07/05 02:50:10;;;;;;;;;;;;;;;17.89;46.88;98197.50;5069068;28;19924;-62
2022/07/05 02:52:44;;;;;;;;;;;;;;;17.94;47.21;98202.72;5081945;28;19920;-60
2022/07/05 02:55:15;;;;;;;;;;;;;;;17.92;46.82;98196.00;5069861;28;19920;-61
2022/07/05 02:57:45;;;;;;;;;;;;;;;17.91;47.47;98194.41;5078026;28;20353;-60
2022/07/05 03:00:16;;;;;;;;;;;;;;;17.93;47.43;98197.59;5072891;28;19920;-61
2022/07/05 03:02:48;;;;;;;;;;;;;;;17.91;47.07;98197.16;5081112;28;19965;-57
2022/07/05 03:05:17;;;;;;;;;;;;;;;17.86;47.26;98191.91;5076665;28;19946;-58
2022/07/05 03:07:54;;;;;;;;;;;;;;;17.83;47.19;98204.41;5066857;28;19924;-60
2022/07/05 03:10:48;;;;;;;;;;;;;;;17.75;47.60;98203.41;5073533;28;19927;-59
2022/07/05 03:13:19;;;;;;;;;;;;;;;17.82;47.57;98202.81;5080165;28;19920;-56
2022/07/05 03:15:47;;;;;;;;;;;;;;;17.79;47.26;98204.31;5076164;28;19920;-61
2022/07/05 03:18:20;;;;;;;;;;;;;;;17.87;47.11;98207.25;5076983;28;19935;-61
2022/07/05 03:20:48;;;;;;;;;;;;;;;17.68;47.55;98208.66;5089491;28;19924;-58
2022/07/05 03:23:19;;;;;;;;;;;;;;;17.86;47.23;98209.19;5071375;28;19951;-61
2022/07/05 03:25:53;;;;;;;;;;;;;;;17.84;47.08;98216.19;5072204;28;19954;-56
2022/07/05 03:28:23;;;;;;;;;;;;;;;17.74;47.17;98221.06;5066071;28;19928;-61
2022/07/05 03:30:55;;;;;;;;;;;;;;;17.74;47.20;98223.00;5074545;28;19928;-60
2022/07/05 03:33:25;;;;;;;;;;;;;;;17.76;47.42;98223.44;5080303;28;19946;-60
2022/07/05 03:35:59;;;;;;;;;;;;;;;17.73;47.60;98229.63;5072447;28;19942;-60
2022/07/05 03:38:28;;;;;;;;;;;;;;;17.66;47.52;98232.97;5081459;28;19945;-60
2022/07/05 03:40:56;;;;;;;;;;;;;;;17.61;47.69;98235.97;5072652;28;19980;-61
2022/07/05 03:43:28;;;;;;;;;;;;;;;17.58;47.99;98239.41;5074818;28;19930;-61
2022/07/05 03:45:57;;;;;;;;;;;;;;;17.60;48.17;98239.06;5086414;28;19920;-61
2022/07/05 03:48:29;;;;;;;;;;;;;;;17.58;47.70;98244.91;5071192;28;20422;-61
2022/07/05 03:51:44;;;;;;;;;;;;;;;17.40;48.28;98251.81;5086127;28;20363;-60
2022/07/05 03:54:13;;;;;;;;;;;;;;;17.39;48.23;98247.50;5079303;28;20164;-59
2022/07/05 03:56:41;;;;;;;;;;;;;;;17.42;48.18;98255.03;5098513;28;19937;-61
2022/07/05 03:59:13;;;;;;;;;;;;;;;17.40;48.91;98262.81;5084342;28;20270;-60
2022/07/05 04:01:43;;;;;;;;;;;;;;;17.46;48.96;98253.19;5078079;28;20204;-61
2022/07/05 04:04:16;;;;;;;;;;;;;;;17.45;49.19;98259.81;5082877;28;20243;-60
2022/07/05 04:06:44;;;;;;;;;;;;;;;17.44;48.84;98258.22;5100795;28;19924;-61
2022/07/05 04:09:13;;;;;;;;;;;;;;;17.54;48.48;98264.03;5089389;28;19928;-60
2022/07/05 04:11:41;;;;;;;;;;;;;;;17.51;48.91;98264.72;5096871;28;19930;-60
2022/07/05 04:14:10;;;;;;;;;;;;;;;17.48;49.26;98276.41;5084941;28;20000;-59
2022/07/05 04:16:46;;;;;;;;;;;;;;;17.53;49.22;98270.69;5081340;28;19945;-61
2022/07/05 04:19:44;;;;;;;;;;;;;;;17.55;49.33;98273.06;5083910;28;19928;-55
2022/07/05 04:25:18;;;;;;;;;;;;;;;17.58;48.90;98277.06;5084149;28;19926;-59
2022/07/05 04:28:10;;;;;;;;;;;;;;;17.55;49.05;98281.31;5083273;28;20202;-61
2022/07/05 04:30:39;;;;;;;;;;;;;;;17.65;48.93;98277.28;5074892;28;19928;-61
2022/07/05 04:33:13;;;;;;;;;;;;;;;17.52;48.86;98271.00;5082944;28;19927;-52
2022/07/05 04:35:50;;;;;;;;;;;;;;;17.60;48.57;98274.78;5059970;28;19920;-60
2022/07/05 04:38:18;;;;;;;;;;;;;;;17.51;48.55;98266.66;5079126;28;19920;-57
2022/07/05 04:40:48;;;;;;;;;;;;;;;17.52;48.69;98269.09;5063653;28;20027;-60
2022/07/05 04:43:16;;;;;;;;;;;;;;;17.65;48.63;98275.31;5074535;28;20000;-61
2022/07/05 04:45:44;;;;;;;;;;;;;;;17.65;48.45;98280.03;5050620;28;19920;-59
2022/07/05 04:48:14;;;;;;;;;;;;;;;17.68;48.56;98277.38;5072002;28;19924;-60
2022/07/05 04:50:42;;;;;;;;;;;;;;;17.67;48.41;98274.97;5047572;28;19929;-60
2022/07/05 04:53:11;;;;;;;;;;;;;;;17.66;49.09;98268.69;5078882;28;20060;-53
2022/07/05 04:55:39;;;;;;;;;;;;;;;17.81;48.40;98278.16;5070339;28;19920;-61
2022/07/05 04:58:08;;;;;;;;;;;;;;;17.90;48.12;98278.81;5072298;28;19933;-61
2022/07/05 05:00:36;;;;;;;;;;;;;;;17.85;48.48;98273.56;5064884;28;19932;-61
2022/07/05 05:03:07;;;;;;;;;;;;;;;17.88;48.54;98278.34;5075137;28;19920;-61
2022/07/05 05:05:37;;;;;;;;;;;;;;;17.95;47.71;98284.06;5073312;28;19923;-59
2022/07/05 05:08:06;;;;;;;;;;;;;;;18.13;48.14;98281.78;5076850;28;20278;-61
2022/07/05 05:10:34;;;;;;;;;;;;;;;18.22;47.70;98282.44;5069544;28;20275;-62
2022/07/05 05:13:09;;;;;;;;;;;;;;;17.88;48.38;98285.81;5077932;28;20041;-62
2022/07/05 05:15:37;;;;;;;;;;;;;;;18.03;48.05;98288.59;5073780;28;19928;-57
2022/07/05 05:18:05;;;;;;;;;;;;;;;18.16;47.84;98281.06;5077704;28;19920;-61
2022/07/05 05:20:33;;;;;;;;;;;;;;;18.36;47.42;98281.19;5071705;28;19920;-60
2022/07/05 05:23:08;;;;;;;;;;;;;;;18.39;47.27;98288.75;5075474;28;19920;-61
2022/07/05 05:25:37;;;;;;;;;;;;;;;18.42;47.10;98290.78;5076174;28;20709;-62
2022/07/05 05:28:05;;;;;;;;;;;;;;;18.53;46.95;98286.34;5072107;28;19952;-61
2022/07/05 05:30:33;;;;;;;;;;;;;;;18.43;46.91;98297.88;5075766;28;19934;-61
2022/07/05 05:33:04;;;;;;;;;;;;;;;18.57;46.97;98298.25;5071100;28;19972;-61
2022/07/05 05:35:32;;;;;;;;;;;;;;;18.65;46.61;98293.75;5088974;28;20247;-62
2022/07/05 05:38:00;;;;;;;;;;;;;;;18.51;47.23;98300.47;5102476;28;19942;-60
2022/07/05 05:40:29;;;;;;;;;;;;;;;18.61;47.32;98296.41;5095340;28;19942;-60
2022/07/05 05:42:57;;;;;;;;;;;;;;;18.71;47.19;98303.38;5095668;28;19928;-61
2022/07/05 05:45:26;;;;;;;;;;;;;;;18.87;46.54;98300.59;5098862;28;19926;-61
2022/07/05 05:47:54;;;;;;;;;;;;;;;18.81;46.68;98306.38;5093515;28;20252;-61
2022/07/05 05:50:23;;;;;;;;;;;;;;;19.11;45.85;98303.94;5096425;28;19919;-51
2022/07/05 05:52:51;;;;;;;;;;;;;;;19.08;46.00;98301.13;5101262;28;19920;-59
2022/07/05 05:55:20;;;;;;;;;;;;;;;19.10;45.73;98301.53;5101972;28;19924;-59
2022/07/05 05:57:49;;;;;;;;;;;;;;;19.17;45.95;98296.19;5097970;28;19937;-59
2022/07/05 06:00:18;;;;;;;;;;;;;;;19.13;46.72;98311.84;5064455;28;19928;-58
2022/07/05 06:02:47;;;;;;;;;;;;;;;19.19;46.42;98302.16;5099131;28;20633;-59
2022/07/05 06:05:15;;;;;;;;;;;;;;;19.07;46.83;98305.81;5097963;28;19984;-59
2022/07/05 06:07:45;;;;;;;;;;;;;;;19.07;47.04;98305.03;5097778;28;19930;-59
2022/07/05 06:10:15;;;;;;;;;;;;;;;19.11;46.92;98305.88;5091401;28;20023;-59
2022/07/05 06:12:43;;;;;;;;;;;;;;;19.22;46.98;98306.13;5098088;28;19919;-59
2022/07/05 06:15:13;;;;;;;;;;;;;;;19.24;46.85;98310.13;5093815;28;19920;-52
2022/07/05 06:17:42;;;;;;;;;;;;;;;19.29;46.88;98309.88;5099347;28;20306;-58
2022/07/05 06:20:11;;;;;;;;;;;;;;;19.29;46.85;98300.81;5098197;28;19954;-58
2022/07/05 06:22:39;;;;;;;;;;;;;;;19.37;46.83;98308.84;5100141;28;19935;-56
2022/07/05 06:25:08;;;;;;;;;;;;;;;19.59;46.24;98306.59;5096386;28;20915;-56
2022/07/05 06:27:52;;;;;;;;;;;;;;;19.58;46.39;98304.97;5100631;28;20378;-55
2022/07/05 06:30:23;;;;;;;;;;;;;;;19.67;46.16;98300.09;5101912;28;20342;-57
2022/07/05 06:32:55;;;;;;;;;;;;;;;19.83;46.16;98300.03;5097746;28;19924;-56
2022/07/05 06:35:23;;;;;;;;;;;;;;;19.84;45.63;98299.66;5092432;28;19941;-55
2022/07/05 06:37:52;;;;;;;;;;;;;;;19.97;45.51;98305.00;5091359;28;19930;-57
2022/07/05 06:40:20;;;;;;;;;;;;;;;20.20;44.86;98311.38;5102467;28;19919;-57
2022/07/05 06:42:49;;;;;;;;;;;;;;;20.29;44.53;98300.09;5094423;28;19920;-57
2022/07/05 06:45:18;;;;;;;;;;;;;;;20.11;45.08;98308.06;5085087;28;19919;-57
2022/07/05 06:47:55;;;;;;;;;;;;;;;20.06;45.22;98300.88;5096312;28;19966;-57
2022/07/05 06:50:23;;;;;;;;;;;;;;;20.16;44.77;98307.75;5097516;28;20077;-56
2022/07/05 06:52:52;;;;;;;;;;;;;;;20.27;44.67;98314.28;5098182;28;19920;-59
2022/07/05 06:55:20;;;;;;;;;;;;;;;20.46;44.53;98310.72;5102034;28;19928;-57
2022/07/05 06:57:48;;;;;;;;;;;;;;;20.53;44.33;98310.03;5096547;28;20000;-57
2022/07/05 07:00:36;;;;;;;;;;;;;;;20.61;44.36;98307.06;5099237;28;20247;-57
2022/07/05 07:03:26;;;;;;;;;;;;;;;20.72;44.24;98310.00;5097535;28;19920;-57
2022/07/05 07:06:14;;;;;;;;;;;;;;;20.92;43.88;98307.94;5096598;28;19968;-57
2022/07/05 07:11:33;;;;;;;;;;;;;;;21.07;43.69;98314.50;5100529;28;19923;-57
2022/07/05 07:14:02;;;;;;;;;;;;;;;21.45;42.85;98321.78;5101665;28;19942;-57
2022/07/05 07:16:30;;;;;;;;;;;;;;;21.39;43.08;98324.09;5099080;28;19919;-55
2022/07/05 07:18:59;;;;;;;;;;;;;;;21.50;43.16;98317.91;5099851;28;19938;-55
2022/07/05 07:21:38;;;;;;;;;;;;;;;21.48;42.82;98332.13;5097033;28;20327;-55
2022/07/05 07:24:06;;;;;;;;;;;;;;;21.51;42.57;98328.59;5098428;28;19924;-55
2022/07/05 07:27:02;;;;;;;;;;;;;;;21.50;43.07;98331.75;5102001;28;20310;-55
2022/07/05 07:29:23;;;;;;;;;;;;;;;21.63;42.51;98331.16;5099837;28;19924;-53
2022/07/05 07:31:51;;;;;;;;;;;;;;;21.69;41.44;98328.84;5102157;28;19936;-54
2022/07/05 07:34:21;;;;;;;;;;;;;;;21.60;41.51;98318.06;5102218;28;19926;-55
2022/07/05 07:36:50;;;;;;;;;;;;;;;21.66;41.92;98319.31;5100563;28;19968;-55
2022/07/05 07:39:18;;;;;;;;;;;;;;;21.65;41.11;98322.47;5094181;28;20372;-57
2022/07/05 07:41:46;;;;;;;;;;;;;;;21.81;41.03;98314.00;5102763;28;19926;-55
2022/07/05 07:44:15;;;;;;;;;;;;;;;21.84;40.73;98319.56;5091307;28;19987;-55
2022/07/05 07:46:43;;;;;;;;;;;;;;;21.93;40.61;98311.75;5095346;28;19920;-55
2022/07/05 07:49:12;;;;;;;;;;;;;;;22.05;40.50;98315.44;5097107;28;20019;-55
2022/07/05 07:51:41;;;;;;;;;;;;;;;22.01;40.34;98311.88;5096937;28;19923;-57
2022/07/05 07:54:10;;;;;;;;;;;;;;;22.18;39.30;98316.84;5095178;28;19923;-56
2022/07/05 07:56:41;;;;;;;;;;;;;;;22.10;40.14;98327.00;5094208;28;20249;-56
2022/07/05 07:59:09;;;;;;;;;;;;;;;22.26;40.28;98318.50;5089535;28;19927;-55
2022/07/05 08:02:03;;;;;;;;;;;;;;;22.29;40.31;98317.75;5086198;28;20372;-56
2022/07/05 08:04:31;;;;;;;;;;;;;;;22.39;39.97;98319.84;5087516;28;20381;-56
2022/07/05 08:07:03;;;;;;;;;;;;;;;22.39;39.65;98322.59;5094511;28;19954;-56
2022/07/05 08:09:32;;;;;;;;;;;;;;;22.41;39.77;98317.47;5094324;28;19923;-56
2022/07/05 08:12:00;;;;;;;;;;;;;;;22.57;38.70;98313.66;5096718;28;19927;-56
2022/07/05 08:14:27;;;;;;;;;;;;;;;22.56;39.03;98321.19;5095187;28;20018;-56
2022/07/05 08:22:39;;;;;;;;;;;;;;;22.66;38.33;98322.47;5088747;28;20368;-56
2022/07/05 08:25:07;;;;;;;;;;;;;;;22.75;37.76;98325.72;5095317;28;20274;-56
2022/07/05 08:27:35;;;;;;;;;;;;;;;22.77;38.96;98317.03;5096008;28;20363;-56
2022/07/05 08:30:04;;;;;;;;;;;;;;;22.84;38.11;98326.19;5077718;28;19965;-56
2022/07/05 08:32:32;;;;;;;;;;;;;;;22.89;36.55;98313.97;5091386;28;19924;-56
2022/07/05 08:35:00;;;;;;;;;;;;;;;22.90;36.80;98321.13;5091686;28;19924;-56
2022/07/05 08:37:28;;;;;;;;;;;;;;;22.93;37.90;98321.16;5092899;28;19919;-56
2022/07/05 08:39:57;;;;;;;;;;;;;;;22.96;35.76;98317.63;5093958;28;19923;-56
2022/07/05 08:42:25;;;;;;;;;;;;;;;23.08;36.74;98322.06;5088320;28;19920;-56
2022/07/05 08:44:52;;;;;;;;;;;;;;;23.09;35.88;98322.88;5093587;28;20345;-55
2022/07/05 08:47:20;;;;;;;;;;;;;;;23.07;35.21;98322.47;5095581;28;20328;-55
2022/07/05 08:49:48;;;;;;;;;;;;;;;23.22;35.65;98324.94;5100316;28;19926;-56
2022/07/05 08:52:18;;;;;;;;;;;;;;;23.16;33.82;98322.91;5095926;28;20292;-56
2022/07/05 08:54:49;;;;;;;;;;;;;;;23.20;33.28;98318.97;5092440;28;19924;-56
2022/07/05 08:57:19;;;;;;;;;;;;;;;23.30;34.14;98314.69;5097620;28;19927;-57
2022/07/05 08:59:47;;;;;;;;;;;;;;;23.31;33.86;98321.81;5087514;28;19926;-57
2022/07/05 09:02:16;;;;;;;;;;;;;;;23.40;33.22;98322.28;5099118;28;19964;-56
2022/07/05 09:04:46;;;;;;;;;;;;;;;23.53;33.95;98317.22;5082580;28;19920;-55
2022/07/05 09:07:16;;;;;;;;;;;;;;;23.53;34.63;98326.31;5090485;28;19941;-56
2022/07/05 09:09:44;;;;;;;;;;;;;;;23.43;33.79;98324.28;5078627;28;19942;-56
2022/07/05 09:12:13;;;;;;;;;;;;;;;23.58;32.95;98324.38;5086395;28;20028;-56
2022/07/05 09:14:58;;;;;;;;;;;;;;;23.65;32.85;98322.47;5091935;28;19920;-56
2022/07/05 09:17:28;;;;;;;;;;;;;;;23.52;33.67;98330.28;5096250;28;19988;-56
2022/07/05 09:20:10;;;;;;;;;;;;;;;23.60;33.16;98324.78;5094251;28;20158;-56
2022/07/05 09:22:45;;;;;;;;;;;;;;;23.59;34.56;98314.84;5092118;28;19928;-56
2022/07/05 09:25:14;;;;;;;;;;;;;;;23.58;33.67;98325.16;5103288;28;20376;-56
2022/07/05 09:27:47;;;;;;;;;;;;;;;23.75;33.36;98326.47;5090333;28;20036;-56
2022/07/05 09:30:26;;;;;;;;;;;;;;;23.73;33.66;98323.28;5091862;28;20170;-57
2022/07/05 09:33:04;;;;;;;;;;;;;;;23.69;33.37;98325.25;5099883;28;19927;-56
2022/07/05 09:35:39;;;;;;;;;;;;;;;23.75;33.15;98332.00;5092151;28;19926;-56
2022/07/05 09:38:16;;;;;;;;;;;;;;;23.71;34.42;98328.44;5077004;28;19916;-55
2022/07/05 09:40:46;;;;;;;;;;;;;;;23.81;34.17;98330.47;5098115;28;19960;-56
2022/07/05 09:43:15;;;;;;;;;;;;;;;23.87;32.78;98330.91;5097829;28;19919;-56
2022/07/05 09:45:52;;;;;;;;;;;;;;;23.74;34.04;98333.19;5093253;28;19928;-56
2022/07/05 09:48:20;;;;;;;;;;;;;;;23.84;34.52;98329.69;5092278;28;19924;-56
2022/07/05 09:51:10;;;;;;;;;;;;;;;23.79;33.80;98321.75;5092834;28;20281;-57
2022/07/05 09:54:05;;;;;;;;;;;;;;;23.93;34.03;98321.81;5092587;28;19916;-57
2022/07/05 09:56:46;;;;;;;;;;;;;;;23.84;33.12;98310.25;5094201;28;19916;-57
2022/07/05 09:59:15;;;;;;;;;;;;;;;23.92;33.63;98317.44;5093287;28;19916;-56
2022/07/05 10:02:09;;;;;;;;;;;;;;;23.97;33.45;98325.41;5093377;28;19926;-56
2022/07/05 10:04:38;;;;;;;;;;;;;;;24.04;33.31;98328.19;5093295;28;19923;-56
2022/07/05 10:07:07;;;;;;;;;;;;;;;23.98;34.01;98327.00;5094518;28;19960;-57
2022/07/05 10:09:35;;;;;;;;;;;;;;;23.98;33.37;98332.53;5094389;28;20019;-56
2022/07/05 10:12:03;;;;;;;;;;;;;;;24.16;33.56;98326.25;5092816;28;19928;-56
2022/07/05 10:14:31;;;;;;;;;;;;;;;24.14;33.35;98323.09;5093031;28;19928;-56
2022/07/05 10:17:06;;;;;;;;;;;;;;;24.07;31.85;98320.25;5094614;28;20017;-56
2022/07/05 10:20:01;;;;;;;;;;;;;;;24.22;33.08;98317.13;5094131;28;19930;-56
2022/07/05 10:22:29;;;;;;;;;;;;;;;24.27;30.86;98321.53;5092747;28;19928;-55
2022/07/05 10:24:57;;;;;;;;;;;;;;;24.30;33.32;98317.97;5094114;28;19920;-57
2022/07/05 10:27:25;;;;;;;;;;;;;;;24.37;33.33;98320.00;5087553;28;19919;-56
2022/07/05 10:29:53;;;;;;;;;;;;;;;24.40;32.30;98335.88;5094588;28;19930;-55
2022/07/05 10:32:21;;;;;;;;;;;;;;;24.12;32.88;98325.44;5102350;28;19923;-56
2022/07/05 10:34:51;;;;;;;;;;;;;;;23.97;34.40;98328.19;5104976;28;20243;-55
2022/07/05 10:37:25;;;;;;;;;;;;;;;24.03;33.48;98329.38;5092544;28;19935;-55
2022/07/05 10:39:54;;;;;;;;;;;;;;;24.10;31.84;98333.38;5098664;28;19920;-56
2022/07/05 10:42:22;;;;;;;;;;;;;;;24.22;31.38;98322.69;5098037;28;19915;-56
2022/07/05 10:44:50;;;;;;;;;;;;;;;24.32;30.32;98321.13;5095768;28;20358;-55
2022/07/05 10:47:19;;;;;;;;;;;;;;;24.49;30.44;98325.97;5099412;28;19915;-56
2022/07/05 10:50:00;;;;;;;;;;;;;;;24.35;32.37;98314.03;5092495;28;19916;-56
2022/07/05 10:52:30;;;;;;;;;;;;;;;24.32;31.19;98332.25;5097162;28;19941;-56
2022/07/05 10:55:17;;;;;;;;;;;;;;;24.34;31.43;98320.75;5090933;28;19931;-56
2022/07/05 10:57:45;;;;;;;;;;;;;;;24.33;31.54;98319.16;5097661;28;20007;-56
2022/07/05 11:00:14;;;;;;;;;;;;;;;24.17;33.14;98327.84;5091598;28;19924;-56
2022/07/05 11:02:42;;;;;;;;;;;;;;;24.02;33.22;98333.34;5098633;28;20174;-56
2022/07/05 11:05:11;;;;;;;;;;;;;;;23.96;33.30;98323.00;5095389;28;19923;-55
2022/07/05 11:07:59;;;;;;;;;;;;;;;23.95;33.11;98326.97;5096485;28;19926;-56
2022/07/05 11:10:31;;;;;;;;;;;;;;;24.07;33.85;98328.59;5096887;28;19923;-57
2022/07/05 11:12:59;;;;;;;;;;;;;;;24.21;34.00;98328.66;5093318;28;19924;-56
2022/07/05 11:15:27;;;;;;;;;;;;;;;24.55;30.50;98326.38;5091866;28;19985;-56
2022/07/05 11:18:10;;;;;;;;;;;;;;;24.38;31.52;98327.94;5102788;28;20316;-55
2022/07/05 11:20:39;;;;;;;;;;;;;;;24.47;30.81;98320.03;5097731;28;20022;-55
2022/07/05 11:23:13;;;;;;;;;;;;;;;24.50;31.35;98312.88;5095330;28;19915;-55
2022/07/05 11:25:42;;;;;;;;;;;;;;;24.40;29.48;98308.13;5099600;28;20169;-56
2022/07/05 11:28:17;;;;;;;;;;;;;;;24.56;30.26;98311.31;5095276;28;19995;-56
2022/07/05 11:30:56;;;;;;;;;;;;;;;24.65;31.87;98313.69;5087325;28;20369;-57
2022/07/05 11:33:29;;;;;;;;;;;;;;;24.72;30.21;98308.94;5084091;28;19923;-55
2022/07/05 11:35:58;;;;;;;;;;;;;;;24.63;31.07;98302.97;5101312;28;19920;-55
2022/07/05 11:38:41;;;;;;;;;;;;;;;24.72;32.62;98313.72;5088325;28;19916;-56
2022/07/05 11:41:53;;;;;;;;;;;;;;;25.00;30.19;98316.50;5099670;28;19938;-55
2022/07/05 11:44:22;;;;;;;;;;;;;;;24.92;29.64;98301.00;5096332;28;19923;-56
2022/07/05 11:47:12;;;;;;;;;;;;;;;24.82;31.22;98299.84;5092597;28;19972;-56
2022/07/05 11:49:40;;;;;;;;;;;;;;;24.94;30.07;98298.63;5090060;28;19916;-55
2022/07/05 11:52:09;;;;;;;;;;;;;;;24.81;29.71;98292.66;5098241;28;20208;-56
2022/07/05 11:54:38;;;;;;;;;;;;;;;24.90;30.00;98289.50;5098977;28;20452;-55
2022/07/05 11:57:09;;;;;;;;;;;;;;;24.91;30.16;98291.06;5090269;28;19922;-55
2022/07/05 11:59:38;;;;;;;;;;;;;;;24.73;30.70;98290.28;5090851;28;19920;-55
2022/07/05 12:02:09;;;;;;;;;;;;;;;24.75;31.28;98291.47;5087983;28;20243;-56
2022/07/05 12:04:37;;;;;;;;;;;;;;;24.66;30.66;98298.59;5094377;28;20041;-55
2022/07/05 12:07:06;;;;;;;;;;;;;;;24.71;32.03;98284.31;5087521;28;19920;-56
2022/07/05 12:15:06;;;;;;;;;;;;;;;24.84;29.74;98274.41;5067038;28;19984;-55
2022/07/05 12:17:35;;;;;;;;;;;;;;;24.86;29.81;98274.81;5094248;28;19924;-56
2022/07/05 12:20:07;;;;;;;;;;;;;;;24.88;29.69;98271.66;5091654;28;20738;-56
2022/07/05 12:22:35;;;;;;;;;;;;;;;24.96;30.80;98287.09;5088626;28;19915;-56
2022/07/05 12:25:04;;;;;;;;;;;;;;;24.97;30.45;98286.69;5101636;28;19948;-56
2022/07/05 12:27:34;;;;;;;;;;;;;;;25.04;29.78;98285.94;5084389;28;19984;-56
2022/07/05 12:30:03;;;;;;;;;;;;;;;25.15;30.95;98281.19;5088613;28;20324;-55
2022/07/05 12:32:32;;;;;;;;;;;;;;;25.18;29.33;98285.13;5085521;28;20002;-56
2022/07/05 12:35:02;;;;;;;;;;;;;;;25.25;29.55;98290.69;5096174;28;20002;-56
2022/07/05 12:37:33;;;;;;;;;;;;;;;24.91;30.58;98288.31;5100269;28;19922;-57
2022/07/05 12:40:12;;;;;;;;;;;;;;;24.92;31.64;98277.97;5091370;28;19927;-56
2022/07/05 12:42:41;;;;;;;;;;;;;;;24.96;28.85;98285.13;5100256;28;19975;-56
2022/07/05 12:45:10;;;;;;;;;;;;;;;24.99;30.74;98287.13;5100576;28;20285;-56
2022/07/05 12:47:51;;;;;;;;;;;;;;;24.95;29.11;98282.75;5098050;28;20454;-57
2022/07/05 12:50:20;;;;;;;;;;;;;;;24.87;29.88;98286.72;5098011;28;19980;-56
2022/07/05 12:58:50;;;;;;;;;;;;;;;24.90;31.01;98270.03;5076866;28;19916;-56
2022/07/05 13:01:19;;;;;;;;;;;;;;;25.05;28.51;98268.06;5076715;28;19916;-55
2022/07/05 13:06:54;;;;;;;;;;;;;;;25.03;28.47;98260.09;5094693;28;19916;-55
2022/07/05 13:09:31;;;;;;;;;;;;;;;24.76;30.72;98268.03;5098922;28;19945;-54
2022/07/05 13:12:09;;;;;;;;;;;;;;;24.73;31.22;98270.84;5099053;28;20273;-55
2022/07/05 13:14:40;;;;;;;;;;;;;;;24.70;30.34;98266.88;5102391;28;19919;-54
2022/07/05 13:17:09;;;;;;;;;;;;;;;24.71;31.08;98271.22;5102403;28;19968;-55
2022/07/05 13:19:37;;;;;;;;;;;;;;;24.86;30.84;98260.91;5096659;28;19920;-55
2022/07/05 13:22:06;;;;;;;;;;;;;;;24.89;30.61;98262.91;5104724;28;19962;-55
2022/07/05 13:24:34;;;;;;;;;;;;;;;24.85;31.53;98262.09;5100903;28;19926;-56
2022/07/05 13:27:02;;;;;;;;;;;;;;;25.03;28.78;98257.31;5099779;28;19926;-56
2022/07/05 13:29:31;;;;;;;;;;;;;;;25.09;29.74;98260.53;5083584;28;20240;-55
2022/07/05 13:32:00;;;;;;;;;;;;;;;25.20;31.55;98254.97;5098421;28;20313;-56
2022/07/05 13:34:54;;;;;;;;;;;;;;;25.15;31.26;98255.38;5103595;28;20223;-56
2022/07/05 13:37:23;;;;;;;;;;;;;;;25.12;31.33;98239.47;5104853;28;19986;-54